Time;durP1;ratioP1;P1;durP2;ratioP2;P2;SDS_P1;SDS_P2;PMS_P1;PMS_P2;Temp;Humidity;BMP_temperature;BMP_pressure;BME280_temperature;BME280_humidity;BME280_pressure;Samples;Min_cycle;Max_cycle;Signal;HPM_P1;HPM_P2
2022/12/24 00:00:06;;;;;;;25.88;10.15;;;;;;;3.53;58.69;100331.44;4913002;29;20624;-72
2022/12/24 00:02:32;;;;;;;29.25;13.18;;;;;;;3.62;58.35;100340.75;4911445;28;20162;-70
2022/12/24 00:04:58;;;;;;;37.33;12.02;;;;;;;3.70;58.41;100339.72;4911778;29;20039;-69
2022/12/24 00:07:23;;;;;;;30.85;12.65;;;;;;;3.78;58.08;100337.84;4910682;29;20090;-74
2022/12/24 00:09:49;;;;;;;27.77;11.48;;;;;;;3.72;58.45;100342.28;4908812;29;20107;-73
2022/12/24 00:12:14;;;;;;;30.48;12.88;;;;;;;3.78;58.07;100348.19;4911760;28;20528;-69
2022/12/24 00:14:40;;;;;;;31.25;12.73;;;;;;;3.76;58.13;100342.19;4908802;29;20030;-70
2022/12/24 00:17:05;;;;;;;27.10;11.32;;;;;;;3.79;58.04;100338.69;4911273;29;20081;-70
2022/12/24 00:19:30;;;;;;;29.35;10.88;;;;;;;3.82;57.84;100348.97;4925871;28;20037;-71
2022/12/24 00:21:56;;;;;;;28.98;11.98;;;;;;;3.84;58.13;100348.94;4912186;28;20159;-71
2022/12/24 00:24:21;;;;;;;30.83;12.23;;;;;;;3.68;58.55;100348.41;4911004;29;20115;-71
2022/12/24 00:26:47;;;;;;;31.25;13.63;;;;;;;3.82;58.07;100348.97;4910434;28;20063;-71
2022/12/24 00:29:12;;;;;;;28.33;11.30;;;;;;;3.84;58.56;100347.19;4910617;29;20439;-68
2022/12/24 00:31:38;;;;;;;40.20;11.95;;;;;;;3.83;58.29;100352.38;4910426;28;20086;-74
2022/12/24 00:34:03;;;;;;;29.60;10.40;;;;;;;3.80;58.16;100356.72;4912266;29;20062;-72
2022/12/24 00:36:29;;;;;;;32.15;11.20;;;;;;;3.81;58.27;100349.84;4911346;28;20131;-73
2022/12/24 00:38:54;;;;;;;32.78;11.23;;;;;;;3.76;58.39;100354.25;4896644;29;20262;-74
2022/12/24 00:41:27;;;;;;;26.13;10.48;;;;;;;3.74;58.43;100349.13;4910356;28;20055;-74
2022/12/24 00:43:55;;;;;;;26.33;11.32;;;;;;;3.84;58.15;100356.69;4911570;29;20036;-73
2022/12/24 00:46:22;;;;;;;27.63;10.82;;;;;;;3.88;58.22;100359.19;4909438;29;20497;-74
2022/12/24 00:48:48;;;;;;;27.20;11.25;;;;;;;3.87;58.11;100362.63;4913214;29;20103;-73
2022/12/24 00:51:14;;;;;;;40.58;11.55;;;;;;;3.78;58.24;100360.22;4907016;28;20091;-75
2022/12/24 00:53:40;;;;;;;33.65;12.52;;;;;;;3.86;57.80;100358.34;4874787;29;20822;-75
2022/12/24 00:56:06;;;;;;;28.67;11.05;;;;;;;3.84;58.02;100361.88;4895016;29;20474;-74
2022/12/24 00:58:31;;;;;;;31.55;11.77;;;;;;;3.84;58.05;100357.53;4911090;29;20044;-75
2022/12/24 01:00:57;;;;;;;29.80;11.00;;;;;;;3.80;58.10;100363.66;4911012;28;20047;-73
2022/12/24 01:03:33;;;;;;;26.40;10.68;;;;;;;3.77;58.40;100354.22;4894760;29;20043;-75
2022/12/24 01:05:58;;;;;;;27.63;10.23;;;;;;;3.76;58.54;100356.81;4909303;28;20059;-73
2022/12/24 01:08:23;;;;;;;25.10;10.77;;;;;;;3.78;58.33;100368.00;4926780;29;20353;-73
2022/12/24 01:10:49;;;;;;;29.58;11.02;;;;;;;3.83;58.42;100371.34;4908928;29;20067;-73
2022/12/24 01:13:14;;;;;;;29.27;11.55;;;;;;;3.67;58.30;100375.97;4910700;29;20066;-70
2022/12/24 01:15:42;;;;;;;33.08;11.23;;;;;;;3.75;58.10;100378.41;4906957;28;20031;-71
2022/12/24 01:18:08;;;;;;;30.92;10.73;;;;;;;3.83;58.43;100376.53;4910019;29;20360;-70
2022/12/24 01:20:33;;;;;;;35.83;12.48;;;;;;;3.85;57.94;100371.31;4909430;29;20038;-70
2022/12/24 01:22:59;;;;;;;32.05;12.35;;;;;;;3.83;58.02;100376.53;4908928;29;20533;-70
2022/12/24 01:25:24;;;;;;;30.17;10.93;;;;;;;3.79;58.22;100374.88;4909805;29;20142;-69
2022/12/24 01:27:50;;;;;;;30.00;10.75;;;;;;;3.80;58.29;100381.75;4907183;28;20183;-70
2022/12/24 01:30:15;;;;;;;29.27;11.60;;;;;;;3.78;57.92;100384.38;4910118;29;20052;-70
2022/12/24 01:32:41;;;;;;;24.55;10.73;;;;;;;3.82;58.24;100390.31;4907713;28;20046;-69
2022/12/24 01:35:08;;;;;;;32.13;12.13;;;;;;;3.78;58.22;100383.50;4911082;29;20035;-69
2022/12/24 01:37:33;;;;;;;31.45;11.68;;;;;;;3.58;58.53;100382.19;4908666;28;20058;-70
2022/12/24 01:45:44;;;;;;;33.10;12.55;;;;;;;3.73;58.43;100395.66;4910435;29;20036;-71
2022/12/24 01:48:18;;;;;;;29.42;11.65;;;;;;;3.80;57.99;100392.06;4911027;29;20135;-71
2022/12/24 01:50:44;;;;;;;38.50;12.65;;;;;;;3.75;58.13;100401.66;4907657;28;20040;-71
2022/12/24 01:53:12;;;;;;;32.55;10.93;;;;;;;3.58;58.46;100399.38;4894962;29;20481;-70
2022/12/24 01:55:39;;;;;;;30.48;11.07;;;;;;;3.69;58.55;100397.44;4908893;29;20031;-71
2022/12/24 01:58:07;;;;;;;32.67;11.93;;;;;;;3.67;58.35;100403.53;4923177;28;20055;-71
2022/12/24 02:00:32;;;;;;;27.67;11.60;;;;;;;3.70;58.29;100406.09;4910402;29;20054;-71
2022/12/24 02:02:58;;;;;;;31.33;11.73;;;;;;;3.56;58.74;100398.56;4906350;28;20043;-70
2022/12/24 02:05:52;;;;;;;34.05;12.50;;;;;;;3.68;58.38;100405.25;4910685;29;20488;-71
2022/12/24 02:08:18;;;;;;;35.03;11.63;;;;;;;3.70;58.33;100406.94;4907668;29;20079;-73
2022/12/24 02:10:45;;;;;;;36.38;11.40;;;;;;;3.54;58.60;100411.53;4907908;28;20040;-72
2022/12/24 02:13:13;;;;;;;35.20;13.02;;;;;;;3.50;58.46;100425.38;4896234;29;20158;-72
2022/12/24 02:16:00;;;;;;;30.20;11.50;;;;;;;3.62;58.28;100433.78;4908382;29;20050;-72
2022/12/24 02:18:42;;;;;;;34.30;12.02;;;;;;;3.61;58.36;100426.94;4923616;28;20110;-72
2022/12/24 02:21:26;;;;;;;26.42;9.65;;;;;;;3.63;58.32;100422.56;4909571;28;20047;-71
2022/12/24 02:24:10;;;;;;;44.95;14.82;;;;;;;3.70;58.32;100419.00;4885586;29;20045;-72
2022/12/24 02:26:50;;;;;;;25.42;11.15;;;;;;;3.65;58.62;100413.03;4906157;28;20048;-69
2022/12/24 02:29:32;;;;;;;45.97;13.95;;;;;;;3.66;58.24;100422.53;4907933;29;20073;-69
2022/12/24 02:32:01;;;;;;;;;;;;;;;3.58;58.49;100426.09;4908987;28;20058;-69
2022/12/24 02:34:35;;;;;;;29.60;10.70;;;;;;;3.58;58.70;100427.81;4907647;29;19957;-69
2022/12/24 02:37:16;;;;;;;38.30;11.07;;;;;;;3.52;58.75;100428.78;4907233;28;20055;-69
2022/12/24 02:39:47;;;;;;;29.42;11.77;;;;;;;3.63;58.42;100435.47;4922648;28;20035;-68
2022/12/24 02:42:17;;;;;;;33.27;11.53;;;;;;;3.71;58.30;100433.63;4909382;28;20056;-69
2022/12/24 02:44:49;;;;;;;33.88;11.63;;;;;;;3.53;58.61;100435.66;4905383;29;20050;-69
2022/12/24 02:47:16;;;;;;;28.27;11.02;;;;;;;3.56;58.64;100435.63;4908950;28;20084;-69
2022/12/24 02:49:44;;;;;;;31.17;11.82;;;;;;;3.66;58.42;100435.44;4934790;28;20042;-68
2022/12/24 02:52:32;;;;;;;34.08;11.85;;;;;;;3.63;58.38;100438.06;4897015;29;20051;-69
2022/12/24 02:55:01;;;;;;;30.63;11.52;;;;;;;3.53;58.73;100429.63;4887732;29;20397;-70
2022/12/24 02:57:48;;;;;;;30.15;10.57;;;;;;;3.54;58.84;100434.78;4889313;28;20096;-68
2022/12/24 03:00:18;;;;;;;30.88;10.10;;;;;;;3.52;58.55;100433.97;4890528;29;20707;-69
2022/12/24 03:03:08;;;;;;;27.75;10.88;;;;;;;3.48;58.80;100441.78;4863217;29;20115;-68
2022/12/24 03:05:43;;;;;;;28.35;9.45;;;;;;;3.49;59.16;100444.34;4873163;29;20048;-69
2022/12/24 03:08:15;;;;;;;26.55;9.50;;;;;;;3.43;58.87;100449.63;4886943;29;20063;-70
2022/12/24 03:11:01;;;;;;;28.88;10.50;;;;;;;3.38;59.57;100457.47;4888426;29;20063;-70
2022/12/24 03:13:28;;;;;;;32.33;9.52;;;;;;;3.44;58.84;100456.47;4886323;29;20076;-69
2022/12/24 03:15:53;;;;;;;28.92;10.23;;;;;;;3.41;59.13;100464.31;4875000;28;20045;-70
2022/12/24 03:18:27;;;;;;;33.40;12.45;;;;;;;3.50;58.99;100458.13;4889056;29;20032;-70
2022/12/24 03:21:00;;;;;;;25.65;10.70;;;;;;;3.26;59.42;100461.94;4886942;28;20209;-71
2022/12/24 03:23:26;;;;;;;19.42;8.48;;;;;;;3.39;59.36;100464.31;4888700;29;20486;-69
2022/12/24 03:25:52;;;;;;;27.33;10.65;;;;;;;3.37;59.43;100463.47;4890495;28;20042;-69
2022/12/24 03:28:22;;;;;;;25.65;9.65;;;;;;;3.49;59.07;100459.88;4890800;29;20071;-68
2022/12/24 03:30:48;;;;;;;27.98;10.32;;;;;;;3.48;59.10;100472.81;4869091;28;20126;-68
2022/12/24 03:33:16;;;;;;;25.70;9.27;;;;;;;3.52;58.97;100480.47;4905051;29;20408;-71
2022/12/24 03:35:41;;;;;;;25.80;9.52;;;;;;;3.53;59.00;100471.81;4891561;29;20253;-73
2022/12/24 03:38:06;;;;;;;24.08;8.93;;;;;;;3.58;58.47;100480.38;4892723;28;20046;-70
2022/12/24 03:40:32;;;;;;;26.88;9.10;;;;;;;3.40;59.13;100480.66;4892107;29;20108;-72
2022/12/24 03:42:57;;;;;;;26.67;9.18;;;;;;;3.58;58.76;100480.38;4883512;29;20048;-71
2022/12/24 03:45:23;;;;;;;23.10;8.40;;;;;;;3.68;58.51;100482.78;4892213;29;20051;-71
2022/12/24 03:47:49;;;;;;;26.38;10.20;;;;;;;3.56;58.56;100491.59;4891011;28;20056;-71
2022/12/24 03:50:14;;;;;;;23.98;10.57;;;;;;;3.63;58.77;100487.16;4892489;29;20072;-71
2022/12/24 03:52:40;;;;;;;29.88;10.25;;;;;;;3.63;58.83;100493.22;4888905;28;20052;-68
2022/12/24 03:55:05;;;;;;;29.17;9.90;;;;;;;3.73;58.56;100489.56;4890484;29;20051;-69
2022/12/24 03:57:31;;;;;;;27.63;8.88;;;;;;;3.72;58.35;100489.63;4890357;28;20048;-68
2022/12/24 03:59:56;;;;;;;22.80;8.85;;;;;;;3.72;58.35;100493.06;4887975;29;20062;-68
2022/12/24 04:02:23;;;;;;;24.25;8.27;;;;;;;3.63;58.88;100492.34;4887472;29;20268;-67
2022/12/24 04:04:48;;;;;;;25.10;9.57;;;;;;;3.70;58.52;100491.38;4888134;29;20352;-68
2022/12/24 04:07:14;;;;;;;23.80;9.02;;;;;;;3.66;58.69;100497.47;4891072;28;20087;-68
2022/12/24 04:09:39;;;;;;;22.10;8.48;;;;;;;3.69;58.33;100498.25;4890738;29;20163;-67
2022/12/24 04:12:06;;;;;;;25.75;10.38;;;;;;;3.62;58.86;100498.41;4904697;28;20070;-68
2022/12/24 04:14:31;;;;;;;23.42;9.13;;;;;;;3.63;58.48;100498.38;4889983;29;20135;-67
2022/12/24 04:16:57;;;;;;;19.95;7.75;;;;;;;3.69;58.48;100492.25;4891217;28;20047;-71
2022/12/24 04:19:22;;;;;;;22.50;8.43;;;;;;;3.63;58.38;100498.38;4892962;29;20596;-70
2022/12/24 04:21:48;;;;;;;23.55;8.80;;;;;;;3.77;58.30;100491.22;4903568;28;20501;-72
2022/12/24 04:24:13;;;;;;;20.83;8.88;;;;;;;3.78;58.23;100481.72;4892673;29;20159;-71
2022/12/24 04:26:38;;;;;;;27.80;8.68;;;;;;;3.80;58.39;100500.66;4888917;28;20127;-71
2022/12/24 04:29:04;;;;;;;24.70;9.95;;;;;;;3.74;58.43;100501.63;4891277;29;20028;-72
2022/12/24 04:31:29;;;;;;;21.17;9.07;;;;;;;3.74;58.55;100517.16;4889549;28;20213;-71
2022/12/24 04:33:55;;;;;;;24.73;8.95;;;;;;;3.76;58.47;100515.38;4885449;29;21327;-70
2022/12/24 04:36:21;;;;;;;24.85;8.43;;;;;;;3.63;58.69;100523.34;4890999;28;20466;-75
2022/12/24 04:38:47;;;;;;;20.10;8.50;;;;;;;3.68;58.71;100524.16;4893970;29;20036;-76
2022/12/24 04:41:21;;;;;;;21.67;9.25;;;;;;;3.87;58.46;100532.44;4881855;29;20247;-75
2022/12/24 04:43:47;;;;;;;24.95;9.57;;;;;;;3.97;58.33;100529.66;4908900;29;20040;-69
2022/12/24 04:46:17;;;;;;;21.63;8.88;;;;;;;4.01;57.91;100536.47;4905385;29;20047;-68
2022/12/24 04:48:44;;;;;;;24.35;9.23;;;;;;;4.09;58.01;100540.66;4910230;29;20412;-68
2022/12/24 04:51:10;;;;;;;22.45;8.63;;;;;;;4.11;57.94;100544.06;4924319;28;20039;-69
2022/12/24 04:53:37;;;;;;;17.75;8.93;;;;;;;4.10;57.83;100550.13;4907899;29;20019;-68
2022/12/24 04:56:03;;;;;;;23.33;10.50;;;;;;;4.06;58.14;100548.47;4906007;29;20052;-69
2022/12/24 04:58:29;;;;;;;32.35;10.45;;;;;;;4.07;57.51;100551.03;4877079;29;20331;-67
2022/12/24 05:00:54;;;;;;;23.83;9.07;;;;;;;3.98;57.65;100552.06;4904479;28;20036;-69
2022/12/24 05:03:20;;;;;;;19.70;8.65;;;;;;;3.97;57.59;100544.31;4888800;29;20481;-71
2022/12/24 05:05:46;;;;;;;22.13;9.13;;;;;;;3.97;57.86;100546.91;4890795;28;20405;-72
2022/12/24 05:08:12;;;;;;;25.10;8.88;;;;;;;3.94;57.96;100547.81;4890673;29;20044;-72
2022/12/24 05:10:37;;;;;;;25.73;9.57;;;;;;;3.93;57.96;100553.84;4889220;29;20313;-72
2022/12/24 05:13:03;;;;;;;23.30;8.98;;;;;;;3.94;57.68;100555.59;4891817;28;20506;-71
2022/12/24 05:15:28;;;;;;;20.13;8.75;;;;;;;3.99;58.03;100553.75;4906418;29;20032;-73
2022/12/24 05:17:54;;;;;;;19.55;9.10;;;;;;;3.86;58.13;100554.84;4889233;28;20135;-72
2022/12/24 05:20:19;;;;;;;28.75;9.18;;;;;;;3.89;58.06;100553.94;4891488;29;20040;-67
2022/12/24 05:28:19;;;;;;;20.40;7.75;;;;;;;3.71;58.70;100555.09;4908475;29;20054;-68
2022/12/24 05:30:45;;;;;;;25.67;8.43;;;;;;;3.89;58.58;100557.38;4907753;28;20032;-68
2022/12/24 05:33:10;;;;;;;20.17;8.38;;;;;;;3.88;58.19;100560.84;4907301;29;20100;-70
2022/12/24 05:35:36;;;;;;;21.55;8.63;;;;;;;3.82;57.99;100544.59;4907640;29;20126;-67
2022/12/24 05:38:01;;;;;;;20.65;7.53;;;;;;;3.81;58.34;100559.25;4906350;29;20051;-68
2022/12/24 05:40:27;;;;;;;21.38;7.95;;;;;;;3.92;57.91;100567.69;4924241;28;20170;-67
2022/12/24 05:42:52;;;;;;;21.25;7.82;;;;;;;3.90;57.94;100572.03;4905670;28;20290;-71
2022/12/24 05:45:18;;;;;;;13.82;6.75;;;;;;;3.92;57.92;100575.44;4906780;29;20495;-68
2022/12/24 05:47:43;;;;;;;16.35;7.90;;;;;;;3.95;58.14;100577.97;4906503;28;20234;-68
2022/12/24 05:50:09;;;;;;;17.13;8.00;;;;;;;3.93;57.82;100579.72;4909672;29;20031;-71
2022/12/24 05:52:35;;;;;;;17.65;8.40;;;;;;;3.92;58.05;100578.03;4892484;29;20119;-69
2022/12/24 05:55:00;;;;;;;24.55;8.32;;;;;;;3.94;58.11;100578.84;4888226;29;20525;-70
2022/12/24 05:57:26;;;;;;;20.50;7.45;;;;;;;3.98;58.14;100577.94;4901077;28;20139;-67
2022/12/24 05:59:51;;;;;;;19.52;7.65;;;;;;;3.94;58.04;100581.44;4907201;29;20115;-70
2022/12/24 06:02:17;;;;;;;18.38;6.75;;;;;;;3.93;58.25;100584.88;4907748;28;20056;-69
2022/12/24 06:04:42;;;;;;;22.30;8.05;;;;;;;3.90;58.03;100584.09;4906653;29;20139;-70
2022/12/24 06:07:07;;;;;;;19.63;8.45;;;;;;;3.78;58.22;100579.97;4903187;29;20047;-69
2022/12/24 06:09:33;;;;;;;19.13;7.70;;;;;;;3.87;58.15;100574.63;4901920;29;20114;-73
2022/12/24 06:11:58;;;;;;;13.77;6.30;;;;;;;3.87;58.52;100574.63;4909174;28;20461;-69
2022/12/24 06:14:26;;;;;;;17.92;7.57;;;;;;;3.95;57.96;100582.28;4894985;29;20438;-69
2022/12/24 06:16:52;;;;;;;18.52;8.45;;;;;;;3.96;58.15;100586.56;4900804;29;20083;-68
2022/12/24 06:19:17;;;;;;;17.83;7.05;;;;;;;3.96;57.75;100587.44;4908191;29;20067;-70
2022/12/24 06:21:42;;;;;;;18.73;6.25;;;;;;;3.94;58.03;100586.63;4919410;28;20039;-71
2022/12/24 06:24:08;;;;;;;18.33;7.28;;;;;;;3.93;58.16;100589.22;4908133;29;20229;-71
2022/12/24 06:26:33;;;;;;;16.83;7.50;;;;;;;3.92;58.09;100596.13;4906169;28;22458;-72
2022/12/24 06:29:01;;;;;;;18.17;8.15;;;;;;;3.91;58.24;100589.22;4922628;28;20417;-73
2022/12/24 06:31:27;;;;;;;17.52;6.30;;;;;;;3.86;58.14;100588.47;4906055;28;20117;-73
2022/12/24 06:33:52;;;;;;;19.42;7.47;;;;;;;3.90;58.63;100587.53;4903142;29;20047;-70
2022/12/24 06:36:23;;;;;;;14.85;7.10;;;;;;;4.04;58.15;100594.22;4908406;28;20049;-70
2022/12/24 06:38:50;;;;;;;13.32;7.07;;;;;;;4.10;58.10;100594.09;4903997;29;20035;-72
2022/12/24 06:41:17;;;;;;;22.75;7.55;;;;;;;4.11;57.99;100608.72;4909289;28;20130;-71
2022/12/24 06:43:44;;;;;;;19.30;7.93;;;;;;;4.02;57.75;100602.81;4903345;29;20024;-74
2022/12/24 06:46:10;;;;;;;18.10;7.75;;;;;;;4.04;57.77;100614.91;4907356;28;20075;-71
2022/12/24 06:48:35;;;;;;;17.33;7.00;;;;;;;3.99;57.85;100610.66;4903711;29;20036;-72
2022/12/24 06:51:02;;;;;;;21.10;8.02;;;;;;;3.97;58.19;100617.56;4908660;28;20058;-71
2022/12/24 06:53:28;;;;;;;24.08;8.38;;;;;;;3.92;58.17;100619.41;4905774;29;20529;-69
2022/12/24 06:56:01;;;;;;;17.73;7.32;;;;;;;3.90;58.21;100618.56;4906729;28;20247;-69
2022/12/24 06:58:27;;;;;;;19.15;6.18;;;;;;;3.94;58.35;100633.16;4888343;29;20576;-73
2022/12/24 07:00:52;;;;;;;17.80;7.18;;;;;;;3.94;57.98;100640.91;4905695;28;20043;-70
2022/12/24 07:03:18;;;;;;;18.50;8.00;;;;;;;3.93;58.03;100652.13;4905766;29;20036;-68
2022/12/24 07:05:43;;;;;;;16.13;6.75;;;;;;;3.97;58.44;100653.78;4920199;28;20036;-72
2022/12/24 07:08:09;;;;;;;17.10;7.07;;;;;;;3.96;58.07;100657.25;4921810;28;20027;-71
2022/12/24 07:10:34;;;;;;;16.70;8.10;;;;;;;3.97;58.10;100656.38;4907832;29;20083;-69
2022/12/24 07:13:00;;;;;;;16.90;6.50;;;;;;;4.04;58.19;100666.63;4902619;28;20040;-70
2022/12/24 07:15:25;;;;;;;21.15;6.95;;;;;;;4.00;58.07;100658.91;4905700;29;20509;-69
2022/12/24 07:17:50;;;;;;;14.85;6.35;;;;;;;4.03;58.16;100668.38;4888478;29;20044;-73
2022/12/24 07:20:16;;;;;;;17.45;7.28;;;;;;;4.06;58.32;100667.44;4888616;29;20032;-71
2022/12/24 07:22:42;;;;;;;17.67;6.80;;;;;;;4.05;58.31;100670.91;4902072;29;20674;-69
2022/12/24 07:25:08;;;;;;;16.05;6.45;;;;;;;4.04;58.03;100672.63;4906452;29;20027;-69
2022/12/24 07:27:34;;;;;;;14.05;5.95;;;;;;;4.08;57.97;100676.03;4904426;28;20051;-69
2022/12/24 07:30:00;;;;;;;15.60;6.57;;;;;;;4.10;58.06;100669.97;4906734;29;20090;-69
2022/12/24 07:32:25;;;;;;;16.05;5.88;;;;;;;4.09;58.09;100678.59;4910124;28;20133;-71
2022/12/24 07:34:50;;;;;;;17.58;7.25;;;;;;;4.02;58.49;100683.00;4888249;29;20043;-69
2022/12/24 07:37:16;;;;;;;12.85;6.22;;;;;;;4.19;58.34;100679.31;4905261;29;20138;-70
2022/12/24 07:39:44;;;;;;;18.75;6.72;;;;;;;4.18;58.12;100675.00;4906419;29;20525;-70
2022/12/24 07:42:10;;;;;;;18.38;6.80;;;;;;;4.18;58.12;100677.59;4905247;28;20490;-71
2022/12/24 07:44:35;;;;;;;17.00;6.18;;;;;;;4.24;58.11;100684.41;4906676;29;20414;-70
2022/12/24 07:47:01;;;;;;;17.65;7.18;;;;;;;4.28;58.38;100689.50;4895168;29;20260;-70
2022/12/24 07:49:26;;;;;;;13.20;7.03;;;;;;;4.31;58.23;100688.59;4907881;29;20956;-71
2022/12/24 07:51:52;;;;;;;12.65;6.50;;;;;;;4.41;58.46;100685.81;4899320;29;20055;-69
2022/12/24 07:54:17;;;;;;;17.85;7.72;;;;;;;4.49;58.41;100700.38;4907804;29;20273;-70
2022/12/24 07:56:46;;;;;;;20.17;8.40;;;;;;;4.53;57.95;100704.59;4903399;28;20536;-69
2022/12/24 07:59:12;;;;;;;23.02;9.02;;;;;;;4.55;58.10;100702.84;4908927;29;20322;-73
2022/12/24 08:01:38;;;;;;;18.30;7.53;;;;;;;4.57;57.98;100701.09;4919275;28;20075;-71
2022/12/24 08:04:04;;;;;;;23.65;9.25;;;;;;;4.61;57.85;100710.50;4908007;29;20091;-70
2022/12/24 08:06:29;;;;;;;19.92;8.10;;;;;;;4.68;57.96;100714.69;4905912;28;20047;-67
2022/12/24 08:08:55;;;;;;;26.55;9.23;;;;;;;4.71;57.94;100719.81;4907603;29;20041;-68
2022/12/24 08:11:20;;;;;;;24.55;10.27;;;;;;;4.72;57.86;100718.06;4909337;28;20047;-69
2022/12/24 08:13:46;;;;;;;29.98;12.43;;;;;;;4.67;58.19;100728.50;4907613;29;20028;-69
2022/12/24 08:16:11;;;;;;;41.13;12.20;;;;;;;4.69;58.30;100737.09;4910628;28;20130;-67
2022/12/24 08:18:39;;;;;;;23.67;10.57;;;;;;;4.74;58.43;100739.59;4907923;29;20517;-69
2022/12/24 08:21:08;;;;;;;28.77;9.75;;;;;;;4.67;58.93;100736.28;4910370;28;20559;-69
2022/12/24 08:23:35;;;;;;;23.73;8.52;;;;;;;4.71;59.05;100735.34;4905893;29;20035;-68
2022/12/24 08:26:00;;;;;;;25.85;9.27;;;;;;;4.80;58.93;100750.72;4909197;28;20400;-69
2022/12/24 08:28:26;;;;;;;24.08;9.25;;;;;;;4.67;59.61;100763.91;4909743;29;20032;-69
2022/12/24 08:30:51;;;;;;;18.10;8.38;;;;;;;5.03;59.13;100758.13;4909753;28;20122;-68
2022/12/24 08:33:18;;;;;;;20.90;7.25;;;;;;;4.84;59.97;100761.88;4905897;29;20340;-68
2022/12/24 08:35:48;;;;;;;14.13;5.18;;;;;;;5.28;59.35;100762.81;4908006;28;20086;-69
2022/12/24 08:38:14;;;;;;;23.30;6.32;;;;;;;5.33;59.45;100749.78;4909410;29;20056;-69
2022/12/24 08:40:42;;;;;;;31.10;6.13;;;;;;;5.31;60.05;100760.16;4910737;29;20037;-69
2022/12/24 08:43:08;;;;;;;15.07;4.90;;;;;;;5.40;60.00;100766.91;4909284;29;20075;-68
2022/12/24 08:45:33;;;;;;;31.20;5.60;;;;;;;5.38;59.87;100763.47;4904781;29;20597;-69
2022/12/24 08:47:59;;;;;;;17.95;3.80;;;;;;;5.34;60.75;100757.50;4908962;28;20561;-69
2022/12/24 08:50:27;;;;;;;16.25;3.65;;;;;;;5.28;60.72;100762.81;4908113;29;20111;-69
2022/12/24 08:52:52;;;;;;;27.85;3.83;;;;;;;5.28;61.32;100756.75;4908443;28;20042;-68
2022/12/24 08:55:18;;;;;;;26.98;4.47;;;;;;;5.25;61.43;100768.88;4906472;29;20040;-68
2022/12/24 08:57:43;;;;;;;21.15;5.45;;;;;;;5.23;61.52;100765.50;4908355;28;20048;-69
2022/12/24 09:00:11;;;;;;;37.38;5.57;;;;;;;5.04;62.62;100774.50;4909482;28;20786;-69
2022/12/24 09:02:36;;;;;;;31.73;3.50;;;;;;;5.44;61.56;100772.00;4905735;28;20556;-67
2022/12/24 09:05:02;;;;;;;24.85;5.45;;;;;;;5.51;61.32;100780.50;4909379;29;20035;-67
2022/12/24 09:07:27;;;;;;;18.50;3.97;;;;;;;4.91;62.86;100783.38;4910492;28;20046;-68
2022/12/24 09:09:53;;;;;;;26.73;4.53;;;;;;;5.42;62.14;100780.69;4906524;29;20082;-67
2022/12/24 09:12:18;;;;;;;42.95;3.95;;;;;;;5.35;61.50;100795.50;4907556;28;20058;-69
2022/12/24 09:14:44;;;;;;;29.13;5.40;;;;;;;5.53;61.42;100794.28;4891634;29;20126;-69
2022/12/24 09:17:09;;;;;;;25.75;3.55;;;;;;;5.31;61.98;100793.84;4909014;28;20051;-68
2022/12/24 09:19:35;;;;;;;23.80;4.47;;;;;;;5.73;60.74;100800.81;4907735;29;20032;-67
2022/12/24 09:22:00;;;;;;;18.15;3.08;;;;;;;5.97;59.82;100802.88;4902398;29;20328;-71
2022/12/24 09:24:26;;;;;;;29.02;3.20;;;;;;;6.13;59.19;100808.56;4905703;29;20339;-68
2022/12/24 09:26:54;;;;;;;25.52;2.97;;;;;;;6.07;59.81;100811.31;4899834;29;20067;-69
2022/12/24 09:29:19;;;;;;;12.70;3.25;;;;;;;6.06;59.40;100817.34;4905104;29;20047;-68
2022/12/24 09:31:45;;;;;;;20.70;3.53;;;;;;;5.86;59.95;100828.19;4903878;29;20047;-68
2022/12/24 09:34:10;;;;;;;30.85;4.43;;;;;;;6.32;59.01;100832.38;4902636;29;20509;-68
2022/12/24 09:36:36;;;;;;;23.45;3.90;;;;;;;6.13;59.24;100842.31;4898533;28;20055;-68
2022/12/24 09:39:01;;;;;;;20.73;4.28;;;;;;;6.02;59.54;100846.88;4887005;29;20039;-68
2022/12/24 09:41:41;;;;;;;19.73;2.95;;;;;;;6.07;59.55;100850.22;4893337;29;20464;-69
2022/12/24 09:44:23;;;;;;;17.88;3.58;;;;;;;5.77;60.20;100864.66;4906610;29;20428;-68
2022/12/24 09:46:51;;;;;;;21.77;4.70;;;;;;;5.81;60.54;100854.19;4896193;28;20096;-68
2022/12/24 09:49:22;;;;;;;14.52;2.95;;;;;;;5.76;60.60;100860.38;4888814;29;20384;-71
2022/12/24 09:52:03;;;;;;;11.95;3.17;;;;;;;6.06;60.08;100864.94;4892288;29;20040;-69
2022/12/24 09:54:55;;;;;;;26.00;5.65;;;;;;;6.09;59.47;100864.88;4905875;29;20039;-70
2022/12/24 09:57:51;;;;;;;26.97;4.57;;;;;;;6.36;58.64;100870.38;4903400;29;20508;-71
2022/12/24 10:00:22;;;;;;;18.98;4.05;;;;;;;6.37;58.28;100869.47;4892708;29;20261;-70
2022/12/24 10:02:48;;;;;;;21.38;3.15;;;;;;;6.49;58.08;100864.00;4889033;28;20040;-68
2022/12/24 10:05:16;;;;;;;26.80;4.78;;;;;;;6.67;57.47;100877.47;4886882;29;20055;-69
2022/12/24 10:08:01;;;;;;;16.33;3.78;;;;;;;6.36;58.85;100872.97;4886770;28;20122;-69
2022/12/24 10:10:50;;;;;;;21.20;6.35;;;;;;;6.24;59.33;100875.81;4886432;29;20038;-68
2022/12/24 10:13:34;;;;;;;28.63;4.18;;;;;;;6.58;58.25;100869.91;4907832;29;20520;-69
2022/12/24 10:16:08;;;;;;;27.60;3.97;;;;;;;6.49;58.63;100874.41;4907606;28;20042;-69
2022/12/24 10:18:51;;;;;;;28.90;3.47;;;;;;;6.72;57.85;100866.97;4908646;29;20047;-70
2022/12/24 10:21:51;;;;;;;15.65;3.58;;;;;;;6.62;58.08;100876.69;4937531;28;20055;-71
2022/12/24 10:24:24;;;;;;;20.55;3.17;;;;;;;6.49;58.97;100876.16;4904148;29;20078;-70
2022/12/24 10:26:59;;;;;;;29.13;4.63;;;;;;;6.70;57.69;100880.81;4904998;28;20043;-71
2022/12/24 10:29:29;;;;;;;24.67;3.28;;;;;;;6.97;57.35;100877.59;4904381;29;20492;-69
2022/12/24 10:32:09;;;;;;;29.25;4.47;;;;;;;6.97;57.41;100882.81;4893079;28;20081;-70
2022/12/24 10:34:41;;;;;;;18.92;3.80;;;;;;;6.59;58.53;100876.78;4885416;29;20260;-69
2022/12/24 10:37:15;;;;;;;26.95;3.90;;;;;;;7.00;57.24;100883.59;4898266;28;20043;-71
2022/12/24 10:39:41;;;;;;;25.63;2.95;;;;;;;6.67;57.98;100885.25;4903899;29;20035;-70
2022/12/24 10:42:08;;;;;;;24.58;3.42;;;;;;;6.63;58.13;100888.81;4904969;28;20107;-70
2022/12/24 10:44:34;;;;;;;29.48;4.55;;;;;;;6.77;57.82;100884.13;4904408;29;20035;-70
2022/12/24 10:46:59;;;;;;;16.50;2.30;;;;;;;6.87;57.71;100888.22;4905018;28;20142;-70
2022/12/24 10:49:38;;;;;;;14.63;3.30;;;;;;;6.73;57.98;100905.91;4906007;29;20032;-69
2022/12/24 10:52:23;;;;;;;24.42;4.10;;;;;;;7.12;56.97;100909.25;4895538;29;20075;-70
2022/12/24 10:55:16;;;;;;;17.35;2.65;;;;;;;7.11;56.91;100902.38;4885006;29;20892;-69
2022/12/24 10:57:43;;;;;;;26.55;2.70;;;;;;;7.29;56.35;100901.03;4900680;29;20050;-70
2022/12/24 11:00:19;;;;;;;20.10;3.60;;;;;;;7.28;56.91;100901.91;4907555;29;20047;-69
2022/12/24 11:02:46;;;;;;;26.85;3.28;;;;;;;6.94;57.35;100893.28;4901359;28;20039;-69
2022/12/24 11:05:32;;;;;;;19.90;4.00;;;;;;;7.45;57.08;100898.91;4911670;29;20042;-69
2022/12/24 11:08:00;;;;;;;26.40;3.72;;;;;;;7.05;57.57;100892.13;4901780;29;20381;-70
2022/12/24 11:10:26;;;;;;;18.65;3.50;;;;;;;7.66;56.30;100894.03;4903520;29;20035;-71
2022/12/24 11:12:51;;;;;;;24.10;4.47;;;;;;;7.49;56.27;100897.09;4886010;29;20053;-70
2022/12/24 11:15:17;;;;;;;25.50;3.40;;;;;;;7.59;56.51;100898.56;4883050;29;20060;-70
2022/12/24 11:17:52;;;;;;;22.75;4.38;;;;;;;7.29;56.96;100903.66;4908955;29;20055;-70
2022/12/24 11:20:25;;;;;;;34.97;6.18;;;;;;;7.48;56.42;100903.16;4912273;29;20288;-70
2022/12/24 11:22:51;;;;;;;21.45;3.17;;;;;;;7.38;56.87;100904.28;4904909;28;20044;-69
2022/12/24 11:25:16;;;;;;;17.85;3.45;;;;;;;7.47;56.77;100899.72;4904228;29;20042;-70
2022/12/24 11:27:48;;;;;;;25.30;3.45;;;;;;;7.18;57.67;100899.63;4903852;28;20147;-71
2022/12/24 11:30:13;;;;;;;;;;;;;;;7.38;56.90;100893.88;4905030;29;20043;-70
2022/12/24 11:32:43;;;;;;;22.95;4.90;;;;;;;7.46;56.55;100894.53;4902458;28;19977;-70
2022/12/24 11:35:17;;;;;;;17.65;3.58;;;;;;;7.65;56.04;100901.00;4889088;29;20027;-70
2022/12/24 11:37:42;;;;;;;29.17;4.88;;;;;;;7.38;57.27;100896.47;4904283;28;20095;-69
2022/12/24 11:40:20;;;;;;;24.58;4.00;;;;;;;7.17;57.88;100888.34;4905888;29;20360;-69